Time;durP1;ratioP1;P1;durP2;ratioP2;P2;SDS_P1;SDS_P2;PMS_P1;PMS_P2;Temp;Humidity;BMP_temperature;BMP_pressure;BME280_temperature;BME280_humidity;BME280_pressure;Samples;Min_cycle;Max_cycle;Signal;HPM_P1;HPM_P2
2022/08/22 00:01:55;;;;;;;10.73;5.60;;;16.80;99.90;;;;;;5147669;27;20095;-68
2022/08/22 00:04:29;;;;;;;6.95;4.95;;;16.80;99.90;;;;;;5127675;27;20050;-67
2022/08/22 00:07:03;;;;;;;8.80;5.22;;;16.80;99.90;;;;;;5127796;27;20131;-67
2022/08/22 00:09:51;;;;;;;9.48;5.78;;;16.80;99.90;;;;;;5126754;27;20502;-67
2022/08/22 00:12:24;;;;;;;8.45;5.57;;;16.80;99.90;;;;;;5125317;27;20050;-67
2022/08/22 00:14:52;;;;;;;7.45;5.30;;;16.80;99.90;;;;;;5145537;27;20038;-67
2022/08/22 00:17:39;;;;;;;12.13;5.53;;;16.80;99.90;;;;;;5127671;27;20074;-67
2022/08/22 00:20:23;;;;;;;;;;;16.80;99.90;;;;;;5140806;27;20051;-68
2022/08/22 00:23:03;;;;;;;9.40;5.70;;;16.80;99.90;;;;;;5126140;27;19926;-67
2022/08/22 00:25:39;;;;;;;10.35;5.25;;;16.70;99.90;;;;;;5144522;27;20035;-67
2022/08/22 00:28:32;;;;;;;9.25;5.45;;;16.70;99.90;;;;;;5120964;27;20159;-68
2022/08/22 00:31:18;;;;;;;10.65;5.50;;;16.70;99.90;;;;;;5125146;27;20043;-67
2022/08/22 00:33:52;;;;;;;10.82;5.15;;;16.70;99.90;;;;;;5127482;27;20053;-67
2022/08/22 00:36:29;;;;;;;9.77;5.70;;;16.70;99.90;;;;;;5144564;27;20034;-68
2022/08/22 00:39:16;;;;;;;9.25;5.50;;;16.70;99.90;;;;;;5146640;27;20035;-68
2022/08/22 00:42:20;;;;;;;8.30;5.43;;;16.60;99.90;;;;;;5124131;27;20043;-67
2022/08/22 00:45:22;;;;;;;9.32;5.35;;;16.60;99.90;;;;;;5144222;27;20035;-68
2022/08/22 00:48:09;;;;;;;8.43;5.40;;;16.50;99.90;;;;;;5125991;27;20050;-67
2022/08/22 00:50:54;;;;;;;;;;;16.50;99.90;;;;;;5127924;27;20038;-67
2022/08/22 00:53:41;;;;;;;8.60;4.88;;;16.50;99.90;;;;;;5146847;27;19934;-67
2022/08/22 00:56:41;;;;;;;10.10;5.13;;;16.40;99.90;;;;;;5140882;27;20444;-67
2022/08/22 00:59:30;;;;;;;8.40;5.25;;;16.30;99.90;;;;;;5123124;27;20070;-67
2022/08/22 01:02:08;;;;;;;9.70;5.30;;;16.30;99.90;;;;;;5139217;27;20042;-67
2022/08/22 01:05:11;;;;;;;9.80;5.15;;;16.30;99.90;;;;;;5128454;27;20039;-67
2022/08/22 01:08:08;;;;;;;8.27;5.20;;;16.20;99.90;;;;;;5142464;27;20047;-67
2022/08/22 01:10:54;;;;;;;10.68;5.50;;;16.20;99.90;;;;;;5140905;27;20050;-67
2022/08/22 01:13:38;;;;;;;8.30;5.10;;;16.10;99.90;;;;;;5143822;27;20058;-67
2022/08/22 01:16:29;;;;;;;9.15;5.80;;;16.10;99.90;;;;;;5141492;27;20067;-67
2022/08/22 01:18:54;;;;;;;7.93;5.47;;;16.00;99.90;;;;;;5137753;27;20126;-68
2022/08/22 01:21:39;;;;;;;9.82;5.18;;;15.90;99.90;;;;;;5146488;27;20501;-67
2022/08/22 01:24:33;;;;;;;8.63;4.70;;;15.90;99.90;;;;;;5122378;27;20058;-68
2022/08/22 01:27:06;;;;;;;6.65;4.82;;;15.90;99.90;;;;;;5139886;27;20027;-67
2022/08/22 01:29:53;;;;;;;8.05;4.28;;;15.80;99.90;;;;;;5145208;27;20573;-67
2022/08/22 01:32:30;;;;;;;7.28;4.65;;;15.70;99.90;;;;;;5125078;27;20035;-67
2022/08/22 01:34:56;;;;;;;6.90;4.57;;;15.70;99.90;;;;;;5139595;27;20115;-67
2022/08/22 01:37:38;;;;;;;6.25;4.25;;;15.70;99.90;;;;;;5127881;27;20525;-67
2022/08/22 01:40:34;;;;;;;7.20;4.93;;;15.60;99.90;;;;;;5143961;27;20486;-67
2022/08/22 01:43:17;;;;;;;6.30;4.60;;;15.60;99.90;;;;;;5122536;27;20043;-67
2022/08/22 01:45:49;;;;;;;7.05;4.10;;;15.60;99.90;;;;;;5142208;27;20035;-67
2022/08/22 01:48:34;;;;;;;6.80;4.28;;;15.50;99.90;;;;;;5145731;27;20049;-68
2022/08/22 01:51:08;;;;;;;7.35;4.35;;;15.40;99.90;;;;;;5141350;27;20031;-67
2022/08/22 01:53:40;;;;;;;8.88;4.63;;;15.40;99.90;;;;;;5125140;27;20042;-67
2022/08/22 01:56:12;;;;;;;9.63;4.85;;;15.40;99.90;;;;;;5125696;27;20031;-67
2022/08/22 01:58:54;;;;;;;7.45;4.82;;;15.40;99.90;;;;;;5124991;27;20443;-67
2022/08/22 02:01:54;;;;;;;9.75;5.13;;;15.30;99.90;;;;;;5138937;27;20035;-67
2022/08/22 02:04:38;;;;;;;5.90;3.70;;;15.30;99.90;;;;;;5120398;27;20439;-67
2022/08/22 02:07:22;;;;;;;5.50;3.28;;;15.30;99.90;;;;;;5124851;27;20055;-67
2022/08/22 02:10:15;;;;;;;5.97;3.90;;;15.20;99.90;;;;;;5119585;27;20469;-67
2022/08/22 02:13:06;;;;;;;6.30;4.30;;;15.20;99.90;;;;;;5123827;27;20122;-67
2022/08/22 02:15:38;;;;;;;7.88;4.68;;;15.20;99.90;;;;;;5124947;27;20051;-67
2022/08/22 02:18:04;;;;;;;9.82;5.15;;;14.50;99.90;;;;;;5121266;27;20071;-67
2022/08/22 02:20:29;;;;;;;7.28;4.53;;;15.10;99.90;;;;;;5143360;27;20465;-67
2022/08/22 02:23:20;;;;;;;7.38;4.85;;;15.10;99.90;;;;;;5124717;27;20390;-66
2022/08/22 02:25:55;;;;;;;7.32;5.13;;;15.10;99.90;;;;;;5138852;27;20040;-68
2022/08/22 02:28:49;;;;;;;8.20;5.50;;;15.00;99.90;;;;;;5125333;27;20049;-67
2022/08/22 02:31:24;;;;;;;7.80;4.75;;;15.00;99.90;;;;;;5110965;27;20051;-67
2022/08/22 02:33:55;;;;;;;8.45;5.07;;;15.00;99.90;;;;;;5140888;27;20057;-67
2022/08/22 02:36:46;;;;;;;7.75;5.22;;;15.00;99.90;;;;;;5129092;27;20026;-67
2022/08/22 02:39:47;;;;;;;8.27;4.82;;;15.10;99.90;;;;;;5119459;27;20490;-67
2022/08/22 02:42:48;;;;;;;8.27;4.80;;;15.00;99.90;;;;;;5056865;28;20515;-68
2022/08/22 02:45:25;;;;;;;7.65;5.40;;;15.00;99.90;;;;;;5135136;27;20051;-67
2022/08/22 02:48:25;;;;;;;9.55;5.53;;;15.00;99.90;;;;;;5123533;27;20042;-67
2022/08/22 02:51:02;;;;;;;8.57;5.50;;;14.90;99.90;;;;;;5144974;27;20032;-67
2022/08/22 02:53:43;;;;;;;7.45;5.22;;;14.90;99.90;;;;;;5124151;27;20054;-67
2022/08/22 02:56:18;;;;;;;7.60;5.05;;;15.00;99.90;;;;;;5136810;27;20066;-67
2022/08/22 02:58:53;;;;;;;7.88;5.32;;;15.00;99.90;;;;;;5120715;27;20039;-67
2022/08/22 03:01:48;;;;;;;9.98;5.03;;;14.90;99.90;;;;;;5124975;27;20042;-67
2022/08/22 03:04:14;;;;;;;7.45;5.28;;;15.00;99.90;;;;;;5122872;27;20051;-67
2022/08/22 03:06:58;;;;;;;8.68;4.88;;;14.90;99.90;;;;;;5140695;27;20046;-67
2022/08/22 03:09:32;;;;;;;8.25;5.00;;;14.80;99.90;;;;;;5124297;27;20051;-67
2022/08/22 03:12:12;;;;;;;10.30;5.65;;;14.80;99.90;;;;;;5123078;27;20047;-67
2022/08/22 03:14:46;;;;;;;8.45;5.22;;;14.80;99.90;;;;;;5144816;27;20042;-67
2022/08/22 03:17:24;;;;;;;8.35;5.20;;;14.80;99.90;;;;;;5140806;27;20058;-67
2022/08/22 03:20:09;;;;;;;9.90;5.35;;;14.80;99.90;;;;;;5137970;27;20487;-68
2022/08/22 03:22:35;;;;;;;9.70;6.10;;;14.80;99.90;;;;;;5118961;27;20078;-67
2022/08/22 03:25:18;;;;;;;10.18;5.70;;;14.90;99.90;;;;;;5143857;27;20445;-67
2022/08/22 03:27:53;;;;;;;9.02;6.13;;;14.80;99.90;;;;;;5121880;27;20047;-67
2022/08/22 03:30:55;;;;;;;8.52;5.40;;;14.80;99.90;;;;;;5123530;27;20447;-67
2022/08/22 03:33:26;;;;;;;8.75;5.82;;;14.80;99.90;;;;;;5142107;27;20042;-67
2022/08/22 03:36:18;;;;;;;8.38;5.95;;;14.80;99.90;;;;;;5143189;27;20046;-67
2022/08/22 03:39:01;;;;;;;10.90;6.18;;;14.80;99.90;;;;;;5118175;27;20051;-68
2022/08/22 03:41:38;;;;;;;9.43;5.60;;;14.80;99.90;;;;;;5122583;28;20032;-67
2022/08/22 03:44:33;;;;;;;8.82;5.15;;;14.80;99.90;;;;;;5119338;27;20054;-66
2022/08/22 03:47:40;;;;;;;8.82;5.50;;;14.80;99.90;;;;;;5137086;27;20031;-67
2022/08/22 03:50:58;;;;;;;11.57;5.80;;;14.70;99.90;;;;;;5143571;27;20039;-67
2022/08/22 03:53:59;;;;;;;8.63;5.38;;;14.70;99.90;;;;;;5121142;27;20055;-67
2022/08/22 03:56:49;;;;;;;7.03;5.22;;;14.60;99.90;;;;;;5126292;27;20047;-67
2022/08/22 03:59:26;;;;;;;9.18;5.07;;;14.60;99.90;;;;;;5126364;27;20063;-66
2022/08/22 04:02:16;;;;;;;8.10;5.53;;;14.60;99.90;;;;;;5144749;27;20108;-67
2022/08/22 04:05:05;;;;;;;9.52;5.55;;;14.60;99.90;;;;;;5124280;27;20051;-67
2022/08/22 04:08:01;;;;;;;10.63;5.40;;;14.60;99.90;;;;;;5140960;27;20039;-67
2022/08/22 04:10:56;;;;;;;9.77;5.97;;;14.50;99.90;;;;;;5140885;27;20050;-67
2022/08/22 04:13:48;;;;;;;9.85;6.05;;;14.50;99.90;;;;;;5121206;27;20082;-67
2022/08/22 04:16:44;;;;;;;8.88;5.47;;;14.50;99.90;;;;;;5126715;27;20055;-67
2022/08/22 04:19:09;;;;;;;12.10;5.93;;;14.50;99.90;;;;;;5123146;27;20078;-67
2022/08/22 04:22:11;;;;;;;8.95;5.38;;;14.40;99.90;;;;;;5145117;27;20230;-67
2022/08/22 04:24:59;;;;;;;7.80;5.47;;;14.40;99.90;;;;;;5125355;27;20051;-67
2022/08/22 04:27:39;;;;;;;7.43;5.65;;;14.40;99.90;;;;;;5139372;27;20042;-66
2022/08/22 04:30:32;;;;;;;7.60;4.93;;;14.40;99.90;;;;;;5127417;27;20474;-67
2022/08/22 04:33:06;;;;;;;6.05;4.93;;;14.30;99.90;;;;;;5122114;27;20059;-67
2022/08/22 04:35:37;;;;;;;8.43;4.97;;;14.30;99.90;;;;;;5124473;27;20042;-67
2022/08/22 04:38:13;;;;;;;7.63;4.90;;;14.30;99.90;;;;;;5127352;27;20050;-67
2022/08/22 04:40:49;;;;;;;9.40;5.18;;;14.30;99.90;;;;;;5144474;27;20441;-67
2022/08/22 04:43:24;;;;;;;;;;;14.20;99.90;;;;;;5147501;27;20046;-67
2022/08/22 04:45:58;;;;;;;6.60;4.57;;;14.30;99.90;;;;;;5139981;27;19919;-69
2022/08/22 04:48:37;;;;;;;6.55;4.82;;;14.30;99.90;;;;;;5139745;27;20114;-66
2022/08/22 04:51:31;;;;;;;7.07;4.78;;;14.30;99.90;;;;;;5126718;27;20397;-67
2022/08/22 04:54:34;;;;;;;7.50;4.80;;;14.30;99.90;;;;;;5123097;27;20035;-67
2022/08/22 04:57:18;;;;;;;7.53;4.70;;;14.30;99.90;;;;;;5123459;27;20043;-67
2022/08/22 04:59:44;;;;;;;7.80;5.05;;;14.30;99.90;;;;;;5142616;27;20375;-67
2022/08/22 05:02:18;;;;;;;6.95;5.13;;;14.30;99.90;;;;;;5145306;27;20473;-67
2022/08/22 05:04:49;;;;;;;9.45;5.82;;;14.30;99.90;;;;;;5139361;27;20035;-67
2022/08/22 05:07:24;;;;;;;8.50;5.07;;;14.30;99.90;;;;;;5120651;27;20039;-67
2022/08/22 05:09:59;;;;;;;8.48;5.15;;;14.40;99.90;;;;;;5126990;27;20474;-67
2022/08/22 05:12:35;;;;;;;7.80;4.75;;;14.40;99.90;;;;;;5144402;27;20050;-67
2022/08/22 05:15:13;;;;;;;7.47;4.55;;;14.40;99.90;;;;;;5144864;27;20066;-67
2022/08/22 05:17:41;;;;;;;6.43;4.20;;;14.40;99.90;;;;;;5145378;27;20490;-67
2022/08/22 05:20:13;;;;;;;5.63;3.72;;;14.40;99.90;;;;;;5125666;27;20073;-67
2022/08/22 05:22:45;;;;;;;5.40;3.72;;;14.40;99.90;;;;;;5142776;27;20490;-67
2022/08/22 05:25:16;;;;;;;5.72;4.40;;;14.40;99.90;;;;;;5119994;27;20043;-67
2022/08/22 05:27:50;;;;;;;7.32;4.32;;;14.50;99.90;;;;;;5120668;27;20054;-67
2022/08/22 05:30:27;;;;;;;8.10;4.15;;;14.50;99.90;;;;;;5120862;27;20047;-67
2022/08/22 05:33:05;;;;;;;;;;;14.50;99.90;;;;;;5144718;27;20050;-67
2022/08/22 05:35:40;;;;;;;6.45;3.03;;;14.60;99.90;;;;;;5124391;27;19919;-67
2022/08/22 05:38:11;;;;;;;3.42;2.30;;;14.60;99.90;;;;;;5126345;27;20031;-67
2022/08/22 05:40:37;;;;;;;4.13;2.42;;;14.60;99.90;;;;;;5124131;27;20039;-67
2022/08/22 05:43:05;;;;;;;4.88;2.65;;;14.70;99.90;;;;;;5145367;27;20053;-67
2022/08/22 05:45:35;;;;;;;4.88;2.08;;;14.60;99.90;;;;;;5123938;27;20078;-66
2022/08/22 05:48:19;;;;;;;3.05;2.10;;;14.70;99.90;;;;;;5145220;27;20112;-67
2022/08/22 05:50:57;;;;;;;3.15;2.30;;;14.80;99.90;;;;;;5127410;27;20054;-67
2022/08/22 05:53:25;;;;;;;3.20;2.10;;;14.80;99.90;;;;;;5125671;27;20089;-67
2022/08/22 05:55:55;;;;;;;3.28;2.15;;;14.80;99.90;;;;;;5125283;27;20450;-67
2022/08/22 05:58:20;;;;;;;3.90;2.10;;;14.90;99.90;;;;;;5124475;27;20516;-67
2022/08/22 06:00:55;;;;;;;3.78;2.28;;;14.90;99.90;;;;;;5125012;27;20054;-67
2022/08/22 06:03:33;;;;;;;3.25;2.40;;;14.90;99.90;;;;;;5142649;27;20046;-67
2022/08/22 06:06:08;;;;;;;3.08;2.15;;;14.90;99.90;;;;;;5125897;27;20363;-67
2022/08/22 06:08:39;;;;;;;4.20;2.27;;;15.00;99.90;;;;;;5119500;27;20047;-67
2022/08/22 06:11:15;;;;;;;3.50;2.30;;;15.00;99.90;;;;;;5126993;27;20046;-67
2022/08/22 06:13:49;;;;;;;4.43;2.55;;;15.00;99.90;;;;;;5139165;27;20046;-67
2022/08/22 06:16:24;;;;;;;3.40;2.35;;;15.00;99.90;;;;;;5144182;27;20034;-67
2022/08/22 06:18:56;;;;;;;3.78;2.38;;;15.00;99.90;;;;;;5127496;27;20039;-68
2022/08/22 06:21:31;;;;;;;4.10;2.35;;;15.00;99.90;;;;;;5123828;27;20068;-67
2022/08/22 06:24:04;;;;;;;3.42;2.35;;;15.00;99.90;;;;;;5125981;27;20133;-67
2022/08/22 06:26:38;;;;;;;3.67;2.72;;;15.00;99.90;;;;;;5141057;27;20517;-67
2022/08/22 06:29:07;;;;;;;3.88;2.33;;;15.10;99.90;;;;;;5137239;27;20038;-67
2022/08/22 06:31:43;;;;;;;6.65;2.80;;;15.10;99.90;;;;;;5126885;27;20091;-68
2022/08/22 06:34:13;;;;;;;4.53;2.55;;;15.10;99.90;;;;;;5137475;27;20574;-67
2022/08/22 06:36:43;;;;;;;3.97;2.40;;;15.20;99.90;;;;;;5140995;27;20035;-67
2022/08/22 06:39:23;;;;;;;4.57;2.70;;;15.20;99.90;;;;;;5125082;27;20401;-68
2022/08/22 06:42:00;;;;;;;4.10;2.50;;;15.20;99.90;;;;;;5124527;27;20043;-67
2022/08/22 06:44:40;;;;;;;4.93;2.50;;;15.30;99.90;;;;;;5123045;27;20116;-67
2022/08/22 06:47:10;;;;;;;4.55;2.50;;;15.40;99.90;;;;;;5120802;27;20047;-67
2022/08/22 06:49:38;;;;;;;4.53;2.50;;;15.40;99.90;;;;;;5141714;27;20046;-68
2022/08/22 06:52:12;;;;;;;5.72;2.60;;;15.50;99.90;;;;;;5141534;27;20081;-68
2022/08/22 06:54:44;;;;;;;6.35;2.90;;;15.60;99.90;;;;;;5126220;27;20038;-68
2022/08/22 06:57:30;;;;;;;8.40;3.30;;;15.70;99.90;;;;;;5143887;27;20047;-67
2022/08/22 07:00:02;;;;;;;8.18;3.50;;;15.80;99.90;;;;;;5118987;28;20031;-68
2022/08/22 07:02:32;;;;;;;5.68;3.28;;;15.90;99.90;;;;;;5118466;28;20039;-68
2022/08/22 07:05:01;;;;;;;8.45;3.50;;;16.10;99.90;;;;;;5119277;27;20398;-68
2022/08/22 07:07:27;;;;;;;7.38;4.18;;;16.20;99.90;;;;;;5137515;27;20031;-68
2022/08/22 07:09:56;;;;;;;7.82;3.83;;;16.40;99.90;;;;;;5117307;28;20088;-68
2022/08/22 07:12:30;;;;;;;8.07;3.65;;;16.70;99.90;;;;;;5145006;27;20087;-68
2022/08/22 07:15:17;;;;;;;6.82;3.53;;;16.80;99.90;;;;;;5137366;27;20043;-67
2022/08/22 07:17:57;;;;;;;7.60;3.90;;;17.00;99.90;;;;;;5142402;27;20039;-68
2022/08/22 07:20:30;;;;;;;12.63;4.93;;;17.30;99.90;;;;;;5140063;27;20035;-69
2022/08/22 07:23:07;;;;;;;10.98;4.70;;;17.60;99.90;;;;;;5136934;27;20082;-68
2022/08/22 07:25:49;;;;;;;12.30;4.97;;;18.10;99.90;;;;;;5129441;27;20092;-68
2022/08/22 07:28:53;;;;;;;9.60;4.82;;;19.20;99.90;;;;;;5148091;27;20087;-68
2022/08/22 07:31:56;;;;;;;8.88;4.65;;;20.30;99.90;;;;;;5122460;27;20122;-69
2022/08/22 07:34:47;;;;;;;10.13;4.40;;;21.20;99.90;;;;;;5106703;27;20112;-69
2022/08/22 07:37:22;;;;;;;9.93;4.65;;;22.10;99.90;;;;;;5146214;27;20047;-69
2022/08/22 07:40:09;;;;;;;8.20;4.45;;;22.40;99.90;;;;;;5126651;27;20036;-69
2022/08/22 07:42:34;;;;;;;12.07;4.25;;;22.70;99.90;;;;;;5126667;27;20035;-69
2022/08/22 07:45:12;;;;;;;9.98;3.97;;;23.10;99.90;;;;;;5127656;27;20091;-69
2022/08/22 07:47:51;;;;;;;8.68;3.33;;;23.70;99.90;;;;;;5129130;27;20039;-69
2022/08/22 07:50:23;;;;;;;9.23;3.17;;;24.10;99.90;;;;;;5136620;27;20039;-69
2022/08/22 07:52:51;;;;;;;7.82;2.67;;;24.30;99.90;;;;;;5140799;27;20054;-69
2022/08/22 07:55:23;;;;;;;6.32;2.83;;;24.80;99.90;;;;;;5140757;27;20483;-69
2022/08/22 07:58:00;;;;;;;8.15;2.67;;;25.60;99.90;;;;;;5139699;27;20126;-69
2022/08/22 08:00:28;;;;;;;5.90;2.38;;;26.60;99.50;;;;;;5124553;27;20035;-69
2022/08/22 08:02:59;;;;;;;5.25;2.30;;;27.20;97.80;;;;;;5146765;27;20077;-69
2022/08/22 08:05:31;;;;;;;5.90;2.38;;;27.60;95.10;;;;;;5140698;27;20039;-70
2022/08/22 08:08:01;;;;;;;7.93;2.85;;;27.50;95.20;;;;;;5127114;27;20046;-70
2022/08/22 08:10:31;;;;;;;6.38;2.30;;;27.90;94.80;;;;;;5128174;27;20046;-70
2022/08/22 08:13:05;;;;;;;8.18;2.80;;;28.20;94.50;;;;;;5126483;27;20057;-70
2022/08/22 08:15:33;;;;;;;5.70;2.40;;;28.40;93.60;;;;;;5127891;27;20035;-69
2022/08/22 08:18:07;;;;;;;8.48;2.75;;;28.60;93.10;;;;;;5145770;27;20039;-69
2022/08/22 08:20:34;;;;;;;6.30;2.60;;;28.90;93.10;;;;;;5132505;27;20074;-69
2022/08/22 08:23:01;;;;;;;5.65;2.17;;;29.10;92.90;;;;;;5127046;27;20406;-70
2022/08/22 08:25:30;;;;;;;5.93;2.40;;;29.30;92.30;;;;;;5127297;27;20035;-70
2022/08/22 08:30:57;;;;;;;6.93;2.30;;;29.90;89.50;;;;;;5140456;27;20171;-70
2022/08/22 08:33:28;;;;;;;5.53;2.35;;;29.80;90.80;;;;;;5125059;27;20053;-69
2022/08/22 08:36:01;;;;;;;5.88;2.25;;;30.00;87.60;;;;;;5143741;27;20046;-69
2022/08/22 08:38:41;;;;;;;5.70;2.17;;;30.50;89.20;;;;;;5143942;27;20031;-69
2022/08/22 08:41:36;;;;;;;3.72;1.95;;;31.10;88.80;;;;;;5127695;27;20041;-70
2022/08/22 08:44:20;;;;;;;5.20;2.40;;;31.20;86.30;;;;;;5145799;27;20065;-70
2022/08/22 08:47:01;;;;;;;5.05;1.90;;;31.40;83.20;;;;;;5140584;27;20413;-70
2022/08/22 08:49:35;;;;;;;5.50;2.10;;;31.10;82.80;;;;;;5127587;27;20053;-69
2022/08/22 08:52:22;;;;;;;4.95;2.30;;;30.80;85.80;;;;;;5146450;27;20441;-70
2022/08/22 08:55:07;;;;;;;5.68;2.33;;;30.90;82.90;;;;;;5141573;27;20046;-70
2022/08/22 08:57:58;;;;;;;5.18;2.28;;;30.70;84.30;;;;;;5125552;27;20074;-70
2022/08/22 09:00:48;;;;;;;4.57;2.03;;;30.60;83.60;;;;;;5125476;27;20039;-70
2022/08/22 09:03:42;;;;;;;5.38;2.20;;;30.70;84.40;;;;;;5121590;27;20088;-69
2022/08/22 09:06:38;;;;;;;7.70;2.38;;;31.10;83.30;;;;;;5139584;27;20047;-70
2022/08/22 09:09:43;;;;;;;5.13;1.98;;;31.20;82.50;;;;;;5138162;27;20046;-70
2022/08/22 09:12:24;;;;;;;4.95;2.20;;;30.90;85.20;;;;;;5121369;27;20062;-69
2022/08/22 09:15:04;;;;;;;5.32;2.08;;;30.90;83.70;;;;;;5143992;27;20050;-69
2022/08/22 09:18:06;;;;;;;4.30;1.75;;;31.30;84.60;;;;;;5146382;27;20059;-69
2022/08/22 09:20:50;;;;;;;5.00;2.15;;;31.30;83.20;;;;;;5141204;27;20078;-70
2022/08/22 09:23:34;;;;;;;5.28;2.08;;;31.30;84.50;;;;;;5141192;27;20133;-70
2022/08/22 09:26:04;;;;;;;6.75;2.40;;;31.50;84.30;;;;;;5138717;27;20043;-70
2022/08/22 09:28:30;;;;;;;5.22;2.17;;;31.70;83.40;;;;;;5120003;27;20043;-70
2022/08/22 09:31:31;;;;;;;8.48;2.30;;;31.40;83.60;;;;;;5126549;27;20049;-70
2022/08/22 09:34:28;;;;;;;6.03;2.50;;;31.90;82.50;;;;;;5123737;27;20035;-70
2022/08/22 09:36:59;;;;;;;5.03;1.90;;;31.80;82.70;;;;;;5144218;27;20050;-69
2022/08/22 09:40:12;;;;;;;5.47;2.00;;;31.80;81.00;;;;;;5142956;27;20032;-69
2022/08/22 09:42:53;;;;;;;5.28;2.00;;;31.70;81.10;;;;;;5023122;28;20045;-70
2022/08/22 09:45:35;;;;;;;4.28;1.58;;;31.50;81.50;;;;;;5141038;27;20068;-70
2022/08/22 09:48:06;;;;;;;5.32;1.80;;;31.40;85.40;;;;;;5138583;27;20075;-70
2022/08/22 09:50:59;;;;;;;5.28;2.03;;;32.10;83.90;;;;;;5116894;27;20075;-70
2022/08/22 09:53:44;;;;;;;4.07;1.60;;;32.40;80.60;;;;;;5142490;27;20471;-70
2022/08/22 09:56:22;;;;;;;4.68;1.80;;;32.50;79.30;;;;;;5123221;27;20451;-70
2022/08/22 09:59:00;;;;;;;5.72;1.83;;;32.80;78.60;;;;;;5123942;27;20050;-70
2022/08/22 10:01:45;;;;;;;4.70;1.90;;;32.60;78.90;;;;;;5137607;27;20039;-70
2022/08/22 10:04:39;;;;;;;6.43;2.05;;;32.40;78.40;;;;;;5141122;27;20116;-70
2022/08/22 10:07:30;;;;;;;4.55;1.95;;;32.40;79.70;;;;;;5121933;27;20395;-70
2022/08/22 10:09:56;;;;;;;4.65;1.85;;;32.20;78.20;;;;;;5138144;27;20491;-70
2022/08/22 10:12:30;;;;;;;6.00;2.20;;;32.10;79.60;;;;;;5144657;27;20043;-70
2022/08/22 10:14:59;;;;;;;4.03;1.60;;;32.20;81.90;;;;;;5142646;27;20035;-70
2022/08/22 10:17:32;;;;;;;4.95;1.83;;;32.60;79.70;;;;;;5121014;27;20034;-68
2022/08/22 10:20:06;;;;;;;4.18;1.90;;;33.00;76.90;;;;;;5134768;27;20074;-70
2022/08/22 10:22:48;;;;;;;3.55;1.75;;;32.80;78.80;;;;;;5143724;27;20039;-69
2022/08/22 10:25:41;;;;;;;4.93;1.60;;;33.30;80.50;;;;;;5143696;27;20138;-69
2022/08/22 10:28:15;;;;;;;3.78;1.55;;;33.40;74.20;;;;;;5141585;27;20092;-69
2022/08/22 10:31:05;;;;;;;5.85;1.83;;;33.60;76.20;;;;;;5124155;27;20060;-69
2022/08/22 10:33:48;;;;;;;4.72;1.90;;;33.60;77.70;;;;;;5124349;27;20035;-69
2022/08/22 10:36:49;;;;;;;5.35;1.80;;;33.90;74.80;;;;;;5144305;27;20064;-69
2022/08/22 10:39:26;;;;;;;6.88;1.85;;;33.30;75.30;;;;;;5114874;27;20049;-69
2022/08/22 10:42:15;;;;;;;5.63;1.60;;;33.10;74.50;;;;;;5119264;27;20047;-70
2022/08/22 10:44:53;;;;;;;4.43;1.60;;;33.00;72.90;;;;;;5123927;27;20047;-70
2022/08/22 10:47:59;;;;;;;7.15;2.15;;;32.80;73.30;;;;;;5135438;27;20031;-70
2022/08/22 10:50:35;;;;;;;3.50;1.50;;;33.20;75.50;;;;;;5141775;27;20088;-69
2022/08/22 10:53:29;;;;;;;5.50;1.67;;;33.60;75.10;;;;;;5143297;27;20494;-70
2022/08/22 10:56:03;;;;;;;3.47;1.50;;;33.60;74.20;;;;;;5120609;27;20047;-70
2022/08/22 10:58:35;;;;;;;7.33;2.10;;;33.60;75.90;;;;;;5142597;27;20038;-70
2022/08/22 11:01:05;;;;;;;3.35;1.40;;;33.60;75.30;;;;;;5123608;27;20054;-70
2022/08/22 11:03:52;;;;;;;5.57;2.00;;;33.70;76.10;;;;;;5140115;27;20531;-69
2022/08/22 11:06:28;;;;;;;5.57;1.92;;;33.80;79.20;;;;;;5137814;27;20057;-70
2022/08/22 11:08:53;;;;;;;;;;;33.80;74.20;;;;;;5124959;27;20591;-69
2022/08/22 11:11:36;;;;;;;4.32;1.60;;;33.50;75.20;;;;;;5122795;27;20002;-68
2022/08/22 11:14:30;;;;;;;4.72;2.03;;;32.60;74.90;;;;;;5123872;27;20039;-69
2022/08/22 11:17:12;;;;;;;5.20;1.70;;;32.40;77.80;;;;;;5138503;27;20046;-69
2022/08/22 11:20:08;;;;;;;5.57;1.70;;;32.70;75.70;;;;;;5144029;27;20114;-69
2022/08/22 11:23:11;;;;;;;5.60;1.88;;;33.00;78.10;;;;;;5123775;27;20344;-69
2022/08/22 11:26:13;;;;;;;4.65;1.70;;;32.20;76.30;;;;;;5125609;27;20045;-68
2022/08/22 11:29:17;;;;;;;5.63;1.80;;;31.20;76.80;;;;;;5143864;27;20414;-68
2022/08/22 11:31:53;;;;;;;4.20;1.65;;;31.00;75.80;;;;;;5137058;27;20035;-68
2022/08/22 11:34:22;;;;;;;6.82;1.75;;;31.60;79.20;;;;;;5120602;27;20482;-68
2022/08/22 11:36:56;;;;;;;3.78;1.50;;;32.40;78.40;;;;;;5124417;27;20053;-68
2022/08/22 11:39:43;;;;;;;5.38;2.05;;;32.80;76.10;;;;;;5141590;27;20039;-69
2022/08/22 11:42:40;;;;;;;4.97;1.58;;;33.10;75.60;;;;;;5118211;28;20345;-69
2022/08/22 11:45:09;;;;;;;4.70;1.70;;;32.50;74.40;;;;;;5144166;27;20042;-69
2022/08/22 11:47:44;;;;;;;6.18;1.95;;;31.60;76.70;;;;;;5120334;28;20074;-69
2022/08/22 11:50:26;;;;;;;4.70;1.80;;;31.20;79.10;;;;;;5136574;27;20054;-68
2022/08/22 11:53:04;;;;;;;4.63;1.83;;;30.70;78.20;;;;;;5122159;27;20062;-68
2022/08/22 11:55:38;;;;;;;7.03;2.35;;;30.30;77.50;;;;;;5141848;27;20083;-68
2022/08/22 11:58:36;;;;;;;5.20;1.90;;;29.50;78.50;;;;;;5124338;27;20043;-69
2022/08/22 12:01:13;;;;;;;3.70;1.60;;;29.20;81.50;;;;;;5124946;27;20508;-68
2022/08/22 12:03:46;;;;;;;4.80;2.35;;;29.00;81.70;;;;;;5120012;27;20046;-68
2022/08/22 12:06:35;;;;;;;5.20;2.20;;;28.30;81.00;;;;;;5122599;27;20047;-69
2022/08/22 12:09:26;;;;;;;4.57;1.88;;;28.20;81.60;;;;;;5122586;27;20043;-68
2022/08/22 12:12:20;;;;;;;4.82;1.92;;;28.00;83.50;;;;;;5144170;27;20035;-69
2022/08/22 12:14:52;;;;;;;6.55;2.38;;;28.30;85.50;;;;;;5143502;27;20039;-68
2022/08/22 12:17:33;;;;;;;5.55;1.77;;;29.30;85.20;;;;;;5124848;27;20117;-68
2022/08/22 12:20:07;;;;;;;4.80;1.83;;;30.30;81.80;;;;;;5143307;27;20042;-69
2022/08/22 12:23:00;;;;;;;7.07;2.40;;;30.70;80.00;;;;;;5121976;27;20047;-68
2022/08/22 12:25:47;;;;;;;5.35;1.80;;;31.20;80.90;;;;;;5145815;27;20081;-69
2022/08/22 12:28:30;;;;;;;8.45;3.03;;;31.70;77.70;;;;;;5123805;27;20039;-68
2022/08/22 12:31:37;;;;;;;7.47;1.75;;;31.90;81.70;;;;;;5125861;27;20073;-69
2022/08/22 12:34:08;;;;;;;7.18;2.05;;;31.80;76.20;;;;;;5121112;27;20122;-68
2022/08/22 12:36:44;;;;;;;3.75;1.70;;;31.30;78.10;;;;;;5122605;27;20499;-69
2022/08/22 12:39:29;;;;;;;4.35;1.73;;;31.30;80.00;;;;;;5109781;27;20107;-69
2022/08/22 12:42:32;;;;;;;4.18;1.95;;;30.80;77.90;;;;;;5128470;27;20034;-70
2022/08/22 12:45:19;;;;;;;4.10;1.75;;;30.50;79.20;;;;;;5120737;27;20043;-68
2022/08/22 12:48:22;;;;;;;4.35;1.60;;;30.40;80.80;;;;;;5141964;27;20054;-69
2022/08/22 12:51:22;;;;;;;5.80;1.92;;;30.30;78.90;;;;;;5126962;27;20050;-68
2022/08/22 12:53:55;;;;;;;4.38;1.92;;;30.60;80.20;;;;;;5126235;27;20484;-68
2022/08/22 12:56:30;;;;;;;5.50;1.50;;;30.90;80.70;;;;;;5126066;27;20039;-69
2022/08/22 12:59:29;;;;;;;4.82;2.03;;;30.90;78.20;;;;;;5138817;27;20039;-68
2022/08/22 13:02:10;;;;;;;4.38;2.00;;;30.30;79.20;;;;;;5138026;27;20078;-68
2022/08/22 13:04:45;;;;;;;4.95;1.90;;;29.60;79.90;;;;;;5123571;27;20051;-70
2022/08/22 13:07:21;;;;;;;6.15;1.95;;;29.30;80.60;;;;;;5125431;27;20091;-69
2022/08/22 13:10:29;;;;;;;5.78;1.80;;;28.90;79.90;;;;;;5127392;27;20050;-68
2022/08/22 13:12:59;;;;;;;4.82;2.20;;;28.80;82.30;;;;;;5115282;27;20043;-70
2022/08/22 13:15:51;;;;;;;6.57;1.80;;;28.70;81.60;;;;;;5120089;27;20038;-68
2022/08/22 13:18:24;;;;;;;5.85;2.28;;;28.60;81.60;;;;;;5138211;27;20046;-69
2022/08/22 13:20:56;;;;;;;5.65;2.25;;;28.50;82.80;;;;;;5141700;27;20078;-69
2022/08/22 13:23:43;;;;;;;9.13;2.80;;;28.80;82.20;;;;;;5142500;27;20410;-69
2022/08/22 13:26:17;;;;;;;4.85;2.03;;;29.00;81.40;;;;;;5124262;27;20116;-68
2022/08/22 13:28:46;;;;;;;3.95;1.60;;;28.80;84.00;;;;;;5126411;27;20049;-69
2022/08/22 13:31:27;;;;;;;6.78;2.13;;;28.60;82.20;;;;;;5143584;27;20046;-69
2022/08/22 13:34:05;;;;;;;4.78;1.90;;;28.40;82.10;;;;;;5141186;27;20072;-69
2022/08/22 13:36:41;;;;;;;4.72;1.95;;;28.20;84.30;;;;;;5138697;27;20039;-69
2022/08/22 13:39:16;;;;;;;5.00;1.60;;;28.00;81.80;;;;;;5143738;27;20030;-69
2022/08/22 13:41:57;;;;;;;7.25;2.15;;;27.70;83.00;;;;;;5145797;27;20054;-70
2022/08/22 13:44:28;;;;;;;5.90;2.20;;;27.60;83.30;;;;;;5138631;27;20047;-69
2022/08/22 13:47:05;;;;;;;5.32;2.10;;;27.40;82.50;;;;;;5127138;27;20039;-69
2022/08/22 13:49:33;;;;;;;5.70;2.10;;;27.20;85.30;;;;;;5141716;27;20043;-69
2022/08/22 13:52:21;;;;;;;4.63;2.17;;;27.10;83.80;;;;;;5125103;27;20480;-69
2022/08/22 13:54:57;;;;;;;5.30;2.17;;;27.20;85.60;;;;;;5120062;27;20047;-69
2022/08/22 13:57:31;;;;;;;5.20;1.95;;;27.30;84.50;;;;;;5120432;27;20049;-69
2022/08/22 14:00:06;;;;;;;5.43;1.92;;;27.60;86.30;;;;;;5125492;27;20129;-69
2022/08/22 14:02:41;;;;;;;4.60;2.00;;;28.00;83.70;;;;;;5144839;27;20050;-69